sensor_id;sensor_type;location;lat;lon;timestamp;pressure;altitude;pressure_sealevel;temperature;humidity
4123;BME280;2075;51.062;6.920;2023-05-29T00:02:00;93424.63;;;-144.48;78.69
4123;BME280;2075;51.062;6.920;2023-05-29T00:04:45;93471.34;;;-144.48;80.37
4123;BME280;2075;51.062;6.920;2023-05-29T00:07:33;93453.06;;;-144.48;80.01
4123;BME280;2075;51.062;6.920;2023-05-29T00:10:18;93501.81;;;-144.48;81.02
4123;BME280;2075;51.062;6.920;2023-05-29T00:13:03;93310.88;;;-144.48;83.10
4123;BME280;2075;51.062;6.920;2023-05-29T00:15:51;93481.50;;;-144.48;84.50
4123;BME280;2075;51.062;6.920;2023-05-29T00:18:37;93532.28;;;-144.48;83.46
4123;BME280;2075;51.062;6.920;2023-05-29T00:21:29;93522.13;;;-144.48;83.64
4123;BME280;2075;51.062;6.920;2023-05-29T00:24:16;93449.00;;;-144.48;83.57
4123;BME280;2075;51.062;6.920;2023-05-29T00:27:02;93520.09;;;-144.48;83.66
4123;BME280;2075;51.062;6.920;2023-05-29T00:29:48;93532.28;;;-144.48;84.68
4123;BME280;2075;51.062;6.920;2023-05-29T00:32:36;93530.25;;;-144.48;84.18
4123;BME280;2075;51.062;6.920;2023-05-29T00:35:21;93511.97;;;-144.48;83.04
4123;BME280;2075;51.062;6.920;2023-05-29T00:38:07;93367.75;;;-144.48;83.89
4123;BME280;2075;51.062;6.920;2023-05-29T00:40:54;93540.41;;;-144.48;86.46
4123;BME280;2075;51.062;6.920;2023-05-29T00:43:40;93621.66;;;-144.48;86.45
4123;BME280;2075;51.062;6.920;2023-05-29T00:46:25;93579.00;;;-144.48;85.49
4123;BME280;2075;51.062;6.920;2023-05-29T00:49:11;93576.97;;;-144.48;85.72
4123;BME280;2075;51.062;6.920;2023-05-29T00:51:56;93579.00;;;-144.48;87.45
4123;BME280;2075;51.062;6.920;2023-05-29T00:54:43;93625.72;;;-144.48;87.81
4123;BME280;2075;51.062;6.920;2023-05-29T00:57:34;93611.50;;;-144.48;88.89
4123;BME280;2075;51.062;6.920;2023-05-29T01:00:20;93654.16;;;-144.48;87.47
4123;BME280;2075;51.062;6.920;2023-05-29T01:03:06;93587.13;;;-144.48;87.86
4123;BME280;2075;51.062;6.920;2023-05-29T01:05:52;93619.63;;;-144.48;86.28
4123;BME280;2075;51.062;6.920;2023-05-29T01:08:38;93637.91;;;-144.48;86.07
4123;BME280;2075;51.062;6.920;2023-05-29T01:11:28;93631.81;;;-144.48;86.56
4123;BME280;2075;51.062;6.920;2023-05-29T01:14:24;93648.06;;;-144.48;87.40
4123;BME280;2075;51.062;6.920;2023-05-29T01:17:17;93627.75;;;-144.48;85.77
4123;BME280;2075;51.062;6.920;2023-05-29T01:20:13;93719.16;;;-144.48;85.74
4123;BME280;2075;51.062;6.920;2023-05-29T01:23:07;93662.28;;;-144.48;85.50
4123;BME280;2075;51.062;6.920;2023-05-29T01:26:07;93276.38;;;-144.48;85.17
4123;BME280;2075;51.062;6.920;2023-05-29T01:29:00;93698.84;;;-144.48;87.54
4123;BME280;2075;51.062;6.920;2023-05-29T01:31:47;93688.69;;;-144.48;89.21
4123;BME280;2075;51.062;6.920;2023-05-29T01:34:34;93700.88;;;-144.48;89.29
4123;BME280;2075;51.062;6.920;2023-05-29T01:37:19;93709.00;;;-144.48;88.68
4123;BME280;2075;51.062;6.920;2023-05-29T01:40:06;93680.56;;;-144.48;88.82
4123;BME280;2075;51.062;6.920;2023-05-29T01:42:52;93731.34;;;-144.48;89.34
4123;BME280;2075;51.062;6.920;2023-05-29T01:45:40;93737.44;;;-144.48;89.29
4123;BME280;2075;51.062;6.920;2023-05-29T01:48:27;93700.88;;;-144.48;90.45
4123;BME280;2075;51.062;6.920;2023-05-29T01:51:14;93843.06;;;-144.48;90.32
4123;BME280;2075;51.062;6.920;2023-05-29T01:53:59;93713.06;;;-144.48;90.63
4123;BME280;2075;51.062;6.920;2023-05-29T01:56:46;93745.56;;;-144.48;91.18
4123;BME280;2075;51.062;6.920;2023-05-29T01:59:33;93727.28;;;-144.48;91.67
4123;BME280;2075;51.062;6.920;2023-05-29T02:02:21;93721.19;;;-144.48;92.13
4123;BME280;2075;51.062;6.920;2023-05-29T02:05:08;93733.38;;;-144.48;92.38
4123;BME280;2075;51.062;6.920;2023-05-29T02:07:53;93723.22;;;-144.48;93.50
4123;BME280;2075;51.062;6.920;2023-05-29T02:10:39;93709.00;;;-144.48;93.20
4123;BME280;2075;51.062;6.920;2023-05-29T02:13:24;93731.34;;;-144.48;93.97
4123;BME280;2075;51.062;6.920;2023-05-29T02:16:10;93733.38;;;-144.48;94.75
4123;BME280;2075;51.062;6.920;2023-05-29T02:18:56;93709.00;;;-144.48;95.40
4123;BME280;2075;51.062;6.920;2023-05-29T02:21:46;93654.16;;;-144.48;96.49
4123;BME280;2075;51.062;6.920;2023-05-29T02:24:32;93709.00;;;-144.48;96.72
4123;BME280;2075;51.062;6.920;2023-05-29T02:27:18;93660.25;;;-144.48;97.36
4123;BME280;2075;51.062;6.920;2023-05-29T02:30:05;93672.44;;;-144.48;97.20
4123;BME280;2075;51.062;6.920;2023-05-29T02:32:50;93550.56;;;-144.48;99.60
4123;BME280;2075;51.062;6.920;2023-05-29T02:35:37;93552.59;;;-144.48;99.66
4123;BME280;2075;51.062;6.920;2023-05-29T02:38:22;93520.09;;;-144.48;100.00
4123;BME280;2075;51.062;6.920;2023-05-29T02:41:08;93432.75;;;-144.48;100.00
4123;BME280;2075;51.062;6.920;2023-05-29T02:43:54;93286.50;;;-144.48;100.00
4123;BME280;2075;51.062;6.920;2023-05-29T02:46:39;92939.22;;;-144.48;100.00
4123;BME280;2075;51.062;6.920;2023-05-29T02:49:26;92342.19;;;-144.48;100.00
4123;BME280;2075;51.062;6.920;2023-05-29T02:52:13;92108.69;;;-144.48;100.00
4123;BME280;2075;51.062;6.920;2023-05-29T02:54:59;90669.44;;;-144.48;100.00
4123;BME280;2075;51.062;6.920;2023-05-29T02:57:44;89679.16;;;-144.48;100.00
4123;BME280;2075;51.062;6.920;2023-05-29T03:00:30;88581.66;;;-144.48;100.00
4123;BME280;2075;51.062;6.920;2023-05-29T03:03:16;89342.38;;;-144.48;100.00
4123;BME280;2075;51.062;6.920;2023-05-29T03:06:02;87760.28;;;-144.48;100.00
4123;BME280;2075;51.062;6.920;2023-05-29T03:08:49;86533.66;;;-144.48;100.00
4123;BME280;2075;51.062;6.920;2023-05-29T03:11:35;84389.63;;;-144.48;100.00
4123;BME280;2075;51.062;6.920;2023-05-29T03:14:22;82352.22;;;-144.48;100.00
4123;BME280;2075;51.062;6.920;2023-05-29T03:17:08;80206.75;;;-144.48;100.00
4123;BME280;2075;51.062;6.920;2023-05-29T03:19:53;78473.13;;;-144.48;100.00
4123;BME280;2075;51.062;6.920;2023-05-29T03:22:38;82538.50;;;-144.48;100.00
4123;BME280;2075;51.062;6.920;2023-05-29T03:25:25;77532.84;;;-144.48;100.00
4123;BME280;2075;51.062;6.920;2023-05-29T03:28:11;77237.66;;;-144.48;100.00
4123;BME280;2075;51.062;6.920;2023-05-29T03:30:57;78798.75;;;-144.48;100.00
4123;BME280;2075;51.062;6.920;2023-05-29T03:33:42;76081.47;;;-144.48;100.00
4123;BME280;2075;51.062;6.920;2023-05-29T03:36:39;80052.97;;;-144.48;100.00
4123;BME280;2075;51.062;6.920;2023-05-29T03:39:25;79510.75;;;-144.48;100.00
4123;BME280;2075;51.062;6.920;2023-05-29T03:42:13;79856.72;;;-144.48;100.00
4123;BME280;2075;51.062;6.920;2023-05-29T03:44:58;83160.16;;;-144.48;100.00
4123;BME280;2075;51.062;6.920;2023-05-29T03:47:43;85333.81;;;-144.48;100.00
4123;BME280;2075;51.062;6.920;2023-05-29T03:50:30;85439.19;;;-144.48;100.00
4123;BME280;2075;51.062;6.920;2023-05-29T03:53:16;88451.84;;;-144.48;100.00
4123;BME280;2075;51.062;6.920;2023-05-29T03:56:01;87606.19;;;-144.48;100.00
4123;BME280;2075;51.062;6.920;2023-05-29T03:58:48;90227.03;;;-144.48;100.00
4123;BME280;2075;51.062;6.920;2023-05-29T04:01:34;89963.22;;;-144.48;100.00
4123;BME280;2075;51.062;6.920;2023-05-29T04:04:20;91418.41;;;-144.48;100.00
4123;BME280;2075;51.062;6.920;2023-05-29T04:07:05;91588.94;;;-144.48;100.00
4123;BME280;2075;51.062;6.920;2023-05-29T04:09:56;92098.53;;;-144.48;100.00
4123;BME280;2075;51.062;6.920;2023-05-29T04:12:45;92070.09;;;-144.48;100.00
4123;BME280;2075;51.062;6.920;2023-05-29T04:15:52;92384.84;;;-144.48;100.00
4123;BME280;2075;51.062;6.920;2023-05-29T04:18:41;92847.81;;;-144.48;100.00
4123;BME280;2075;51.062;6.920;2023-05-29T04:21:27;92754.41;;;-144.48;100.00
4123;BME280;2075;51.062;6.920;2023-05-29T04:24:12;93059.03;;;-144.48;100.00
4123;BME280;2075;51.062;6.920;2023-05-29T04:26:58;93351.50;;;-144.48;99.53
4123;BME280;2075;51.062;6.920;2023-05-29T04:29:44;93420.56;;;-144.48;99.62
4123;BME280;2075;51.062;6.920;2023-05-29T04:32:31;93526.19;;;-144.48;96.65
4123;BME280;2075;51.062;6.920;2023-05-29T04:35:17;93469.31;;;-144.48;97.68
4123;BME280;2075;51.062;6.920;2023-05-29T04:38:19;93379.94;;;-144.48;99.12
4123;BME280;2075;51.062;6.920;2023-05-29T04:41:10;93442.91;;;-144.48;97.70
4123;BME280;2075;51.062;6.920;2023-05-29T04:43:55;93408.38;;;-144.48;98.39
4123;BME280;2075;51.062;6.920;2023-05-29T04:46:45;93511.97;;;-144.48;95.08
4123;BME280;2075;51.062;6.920;2023-05-29T04:49:33;93631.81;;;-144.48;93.59
4123;BME280;2075;51.062;6.920;2023-05-29T04:52:19;93635.88;;;-144.48;89.55
4123;BME280;2075;51.062;6.920;2023-05-29T04:55:05;93595.25;;;-144.48;88.35
4123;BME280;2075;51.062;6.920;2023-05-29T04:57:51;93516.03;;;-144.48;82.76
4123;BME280;2075;51.062;6.920;2023-05-29T05:00:37;92965.63;;;-144.48;57.23
4123;BME280;2075;51.062;6.920;2023-05-29T05:03:22;92376.72;;;-144.48;42.03
4123;BME280;2075;51.062;6.920;2023-05-29T05:06:11;91905.66;;;-144.48;35.66
4123;BME280;2075;51.062;6.920;2023-05-29T05:08:56;92153.34;;;-144.48;36.35
4123;BME280;2075;51.062;6.920;2023-05-29T05:11:42;92344.22;;;-144.48;36.73
4123;BME280;2075;51.062;6.920;2023-05-29T05:14:27;92388.88;;;-144.48;37.54
4123;BME280;2075;51.062;6.920;2023-05-29T05:17:12;92258.94;;;-144.48;36.08
4123;BME280;2075;51.062;6.920;2023-05-29T05:19:58;92165.53;;;-144.48;34.89
4123;BME280;2075;51.062;6.920;2023-05-29T05:22:46;92080.25;;;-144.48;34.26
4123;BME280;2075;51.062;6.920;2023-05-29T05:25:31;92003.09;;;-144.48;33.63
4123;BME280;2075;51.062;6.920;2023-05-29T05:28:18;92072.16;;;-144.48;34.43
4123;BME280;2075;51.062;6.920;2023-05-29T05:31:03;92045.75;;;-144.48;33.75
4123;BME280;2075;51.062;6.920;2023-05-29T05:33:50;92106.66;;;-144.48;33.75
4123;BME280;2075;51.062;6.920;2023-05-29T05:36:35;92183.81;;;-144.48;34.21
4123;BME280;2075;51.062;6.920;2023-05-29T05:39:28;92015.28;;;-144.48;33.33
4123;BME280;2075;51.062;6.920;2023-05-29T05:42:14;91897.53;;;-144.48;33.13
4123;BME280;2075;51.062;6.920;2023-05-29T05:45:06;91968.59;;;-144.48;32.22
4123;BME280;2075;51.062;6.920;2023-05-29T05:47:52;92080.25;;;-144.48;33.12
4123;BME280;2075;51.062;6.920;2023-05-29T05:50:41;92191.94;;;-144.48;34.63
4123;BME280;2075;51.062;6.920;2023-05-29T05:53:26;91538.19;;;-144.48;30.92
4123;BME280;2075;51.062;6.920;2023-05-29T05:56:14;91229.63;;;-144.48;29.27
4123;BME280;2075;51.062;6.920;2023-05-29T05:58:59;91605.19;;;-144.48;29.79
4123;BME280;2075;51.062;6.920;2023-05-29T06:01:45;91120.03;;;-144.48;29.26
4123;BME280;2075;51.062;6.920;2023-05-29T06:04:32;91398.13;;;-144.48;29.03
4123;BME280;2075;51.062;6.920;2023-05-29T06:07:17;91611.28;;;-144.48;30.24
4123;BME280;2075;51.062;6.920;2023-05-29T06:10:03;91341.28;;;-144.48;29.55
4123;BME280;2075;51.062;6.920;2023-05-29T06:12:51;90675.53;;;-144.48;26.70
4123;BME280;2075;51.062;6.920;2023-05-29T06:15:42;91091.59;;;-144.48;27.99
4123;BME280;2075;51.062;6.920;2023-05-29T06:18:27;91146.41;;;-144.48;28.57
4123;BME280;2075;51.062;6.920;2023-05-29T06:21:13;90876.47;;;-144.48;27.39
4123;BME280;2075;51.062;6.920;2023-05-29T06:24:06;90923.13;;;-144.48;27.20
4123;BME280;2075;51.062;6.920;2023-05-29T06:26:51;91122.06;;;-144.48;27.76
4123;BME280;2075;51.062;6.920;2023-05-29T06:29:38;90586.22;;;-144.48;26.83
4123;BME280;2075;51.062;6.920;2023-05-29T06:32:25;90257.47;;;-144.48;25.45
4123;BME280;2075;51.062;6.920;2023-05-29T06:35:14;90026.13;;;-144.48;25.12
4123;BME280;2075;51.062;6.920;2023-05-29T06:37:59;90145.84;;;-144.48;25.29
4123;BME280;2075;51.062;6.920;2023-05-29T06:40:45;90910.97;;;-144.48;26.86
4123;BME280;2075;51.062;6.920;2023-05-29T06:43:30;91034.78;;;-144.48;27.57
4123;BME280;2075;51.062;6.920;2023-05-29T06:46:17;91006.34;;;-144.48;28.01
4123;BME280;2075;51.062;6.920;2023-05-29T06:49:02;90641.03;;;-144.48;26.50
4123;BME280;2075;51.062;6.920;2023-05-29T06:51:48;90251.38;;;-144.48;25.70
4123;BME280;2075;51.062;6.920;2023-05-29T06:54:58;90269.63;;;-144.48;25.13
4123;BME280;2075;51.062;6.920;2023-05-29T06:57:45;90145.84;;;-144.48;25.31
4123;BME280;2075;51.062;6.920;2023-05-29T07:13:42;90736.41;;;-144.48;26.63
4123;BME280;2075;51.062;6.920;2023-05-29T07:16:28;90683.66;;;-144.48;26.59
4123;BME280;2075;51.062;6.920;2023-05-29T07:19:19;91168.75;;;-144.48;27.66
4123;BME280;2075;51.062;6.920;2023-05-29T07:22:04;90182.38;;;-144.48;25.38
4123;BME280;2075;51.062;6.920;2023-05-29T07:24:50;90594.34;;;-144.48;26.09
4123;BME280;2075;51.062;6.920;2023-05-29T07:27:36;90576.06;;;-144.48;26.07
4123;BME280;2075;51.062;6.920;2023-05-29T07:30:23;89640.59;;;-144.48;23.99
4123;BME280;2075;51.062;6.920;2023-05-29T07:33:11;89356.56;;;-144.48;23.76
4123;BME280;2075;51.062;6.920;2023-05-29T07:35:56;89368.75;;;-144.48;23.59
4123;BME280;2075;51.062;6.920;2023-05-29T07:38:43;89819.16;;;-144.48;24.29
4123;BME280;2075;51.062;6.920;2023-05-29T07:41:30;90245.28;;;-144.48;25.02
4123;BME280;2075;51.062;6.920;2023-05-29T07:44:16;89786.69;;;-144.48;24.02
4123;BME280;2075;51.062;6.920;2023-05-29T07:47:03;89809.00;;;-144.48;24.13
4123;BME280;2075;51.062;6.920;2023-05-29T07:49:53;90192.53;;;-144.48;25.03
4123;BME280;2075;51.062;6.920;2023-05-29T07:52:42;89742.06;;;-144.48;24.21
4123;BME280;2075;51.062;6.920;2023-05-29T07:55:27;89746.13;;;-144.48;24.36
4123;BME280;2075;51.062;6.920;2023-05-29T07:58:14;89936.84;;;-144.48;24.61
4123;BME280;2075;51.062;6.920;2023-05-29T08:01:07;89238.91;;;-144.48;23.76
4123;BME280;2075;51.062;6.920;2023-05-29T08:03:55;90517.22;;;-144.48;25.52
4123;BME280;2075;51.062;6.920;2023-05-29T08:06:46;90427.94;;;-144.48;25.88
4123;BME280;2075;51.062;6.920;2023-05-29T08:09:33;90375.16;;;-144.48;26.21
4123;BME280;2075;51.062;6.920;2023-05-29T08:12:18;90622.75;;;-144.48;26.67
4123;BME280;2075;51.062;6.920;2023-05-29T08:15:06;90572.03;;;-144.48;26.34
4123;BME280;2075;51.062;6.920;2023-05-29T08:17:52;90805.41;;;-144.48;27.38
4123;BME280;2075;51.062;6.920;2023-05-29T08:20:39;91617.38;;;-144.48;30.26
4123;BME280;2075;51.062;6.920;2023-05-29T08:23:24;91873.16;;;-144.48;31.82
4123;BME280;2075;51.062;6.920;2023-05-29T08:26:10;91361.59;;;-144.48;29.50
4123;BME280;2075;51.062;6.920;2023-05-29T08:28:55;91769.63;;;-144.48;31.76
4123;BME280;2075;51.062;6.920;2023-05-29T08:31:41;91698.56;;;-144.48;31.03
4123;BME280;2075;51.062;6.920;2023-05-29T08:34:26;91205.28;;;-144.48;29.40
4123;BME280;2075;51.062;6.920;2023-05-29T08:37:13;91873.16;;;-144.48;32.24
4123;BME280;2075;51.062;6.920;2023-05-29T08:39:59;92019.34;;;-144.48;33.27
4123;BME280;2075;51.062;6.920;2023-05-29T08:42:47;91180.91;;;-144.48;29.78
4123;BME280;2075;51.062;6.920;2023-05-29T08:45:33;91471.19;;;-144.48;30.32
4123;BME280;2075;51.062;6.920;2023-05-29T08:48:23;91278.34;;;-144.48;29.53
4123;BME280;2075;51.062;6.920;2023-05-29T08:51:10;91775.72;;;-144.48;31.92
4123;BME280;2075;51.062;6.920;2023-05-29T08:53:57;91351.44;;;-144.48;30.47
4123;BME280;2075;51.062;6.920;2023-05-29T08:56:42;91438.72;;;-144.48;30.73
4123;BME280;2075;51.062;6.920;2023-05-29T08:59:29;91390.00;;;-144.48;29.99
4123;BME280;2075;51.062;6.920;2023-05-29T09:02:15;91558.50;;;-144.48;31.03
4123;BME280;2075;51.062;6.920;2023-05-29T09:05:00;92279.25;;;-144.48;34.94
4123;BME280;2075;51.062;6.920;2023-05-29T09:07:46;92283.31;;;-144.48;35.45
4123;BME280;2075;51.062;6.920;2023-05-29T09:10:35;92498.53;;;-144.48;36.81
4123;BME280;2075;51.062;6.920;2023-05-29T09:13:20;92553.38;;;-144.48;40.10
4123;BME280;2075;51.062;6.920;2023-05-29T09:16:07;92622.41;;;-144.48;40.63
4123;BME280;2075;51.062;6.920;2023-05-29T09:18:52;92705.66;;;-144.48;42.45
4123;BME280;2075;51.062;6.920;2023-05-29T09:21:45;92665.06;;;-144.48;41.66
4123;BME280;2075;51.062;6.920;2023-05-29T09:24:32;92723.94;;;-144.48;43.86
4123;BME280;2075;51.062;6.920;2023-05-29T09:27:19;92697.56;;;-144.48;43.32
4123;BME280;2075;51.062;6.920;2023-05-29T09:30:06;92790.97;;;-144.48;45.10
4123;BME280;2075;51.062;6.920;2023-05-29T09:32:54;92626.47;;;-144.48;43.72
4123;BME280;2075;51.062;6.920;2023-05-29T09:35:41;92709.75;;;-144.48;43.98
4123;BME280;2075;51.062;6.920;2023-05-29T09:38:26;92703.66;;;-144.48;45.04
4123;BME280;2075;51.062;6.920;2023-05-29T09:41:12;92648.81;;;-144.48;43.39
4123;BME280;2075;51.062;6.920;2023-05-29T09:44:01;92728.00;;;-144.48;44.61
4123;BME280;2075;51.062;6.920;2023-05-29T09:46:48;92843.78;;;-144.48;47.42
4123;BME280;2075;51.062;6.920;2023-05-29T09:49:34;92906.72;;;-144.48;49.32
4123;BME280;2075;51.062;6.920;2023-05-29T09:52:22;92910.78;;;-144.48;48.43
4123;BME280;2075;51.062;6.920;2023-05-29T09:55:08;92725.97;;;-144.48;44.85
4123;BME280;2075;51.062;6.920;2023-05-29T09:57:54;92807.22;;;-144.48;48.19
4123;BME280;2075;51.062;6.920;2023-05-29T10:00:42;92667.09;;;-144.48;45.53
4123;BME280;2075;51.062;6.920;2023-05-29T10:03:28;92793.00;;;-144.48;46.08
4123;BME280;2075;51.062;6.920;2023-05-29T10:06:20;92827.53;;;-144.48;48.38
4123;BME280;2075;51.062;6.920;2023-05-29T10:09:09;92811.28;;;-144.48;47.50
4123;BME280;2075;51.062;6.920;2023-05-29T10:11:58;92833.63;;;-144.48;47.29
4123;BME280;2075;51.062;6.920;2023-05-29T10:14:47;92825.50;;;-144.48;47.38
4123;BME280;2075;51.062;6.920;2023-05-29T10:17:36;92778.78;;;-144.48;47.55
4123;BME280;2075;51.062;6.920;2023-05-29T10:20:23;93000.16;;;-144.48;47.43
4123;BME280;2075;51.062;6.920;2023-05-29T10:23:09;92795.03;;;-144.48;46.37
4123;BME280;2075;51.062;6.920;2023-05-29T10:25:58;92837.69;;;-144.48;47.35
4123;BME280;2075;51.062;6.920;2023-05-29T10:28:55;92817.38;;;-144.48;47.30
4123;BME280;2075;51.062;6.920;2023-05-29T10:31:48;92742.22;;;-144.48;46.40
4123;BME280;2075;51.062;6.920;2023-05-29T10:34:43;92788.94;;;-144.48;45.45
4123;BME280;2075;51.062;6.920;2023-05-29T10:37:39;92721.91;;;-144.48;45.55
4123;BME280;2075;51.062;6.920;2023-05-29T10:40:26;92713.78;;;-144.48;43.59
4123;BME280;2075;51.062;6.920;2023-05-29T10:43:32;92746.28;;;-144.48;45.60
4123;BME280;2075;51.062;6.920;2023-05-29T10:46:18;92784.88;;;-144.48;46.16
4123;BME280;2075;51.062;6.920;2023-05-29T10:49:04;92746.28;;;-144.48;44.63
4123;BME280;2075;51.062;6.920;2023-05-29T10:52:03;92770.66;;;-144.48;46.32
4123;BME280;2075;51.062;6.920;2023-05-29T10:54:54;92675.22;;;-144.48;45.65
4123;BME280;2075;51.062;6.920;2023-05-29T10:57:46;92730.03;;;-144.48;46.61
4123;BME280;2075;51.062;6.920;2023-05-29T11:00:33;92644.75;;;-144.48;44.43
4123;BME280;2075;51.062;6.920;2023-05-29T11:03:20;92687.41;;;-144.48;44.12
4123;BME280;2075;51.062;6.920;2023-05-29T11:06:07;92717.84;;;-144.48;43.99
4123;BME280;2075;51.062;6.920;2023-05-29T11:09:03;92620.38;;;-144.48;44.51
4123;BME280;2075;51.062;6.920;2023-05-29T11:12:13;92640.69;;;-144.48;44.58
4123;BME280;2075;51.062;6.920;2023-05-29T11:15:09;92642.72;;;-144.48;43.42
4123;BME280;2075;51.062;6.920;2023-05-29T11:18:06;92671.16;;;-144.48;44.76
4123;BME280;2075;51.062;6.920;2023-05-29T11:20:55;92640.69;;;-144.48;43.34
4123;BME280;2075;51.062;6.920;2023-05-29T11:23:42;92634.59;;;-144.48;43.67
4123;BME280;2075;51.062;6.920;2023-05-29T11:26:32;92563.53;;;-144.48;42.27
4123;BME280;2075;51.062;6.920;2023-05-29T11:29:21;92502.59;;;-144.48;42.33
4123;BME280;2075;51.062;6.920;2023-05-29T11:32:12;92652.88;;;-144.48;43.20
4123;BME280;2075;51.062;6.920;2023-05-29T11:35:06;92553.38;;;-144.48;42.34
4123;BME280;2075;51.062;6.920;2023-05-29T11:37:52;92575.72;;;-144.48;42.58
4123;BME280;2075;51.062;6.920;2023-05-29T11:40:38;92547.28;;;-144.48;43.08
4123;BME280;2075;51.062;6.920;2023-05-29T11:43:28;92498.53;;;-144.48;42.30
4123;BME280;2075;51.062;6.920;2023-05-29T11:46:17;92522.91;;;-144.48;42.79
4123;BME280;2075;51.062;6.920;2023-05-29T11:49:04;92648.81;;;-144.48;42.84
4123;BME280;2075;51.062;6.920;2023-05-29T11:51:50;92591.94;;;-144.48;43.19
4123;BME280;2075;51.062;6.920;2023-05-29T11:54:36;92547.28;;;-144.48;42.70
4123;BME280;2075;51.062;6.920;2023-05-29T11:57:22;92598.03;;;-144.48;42.05
4123;BME280;2075;51.062;6.920;2023-05-29T12:00:13;92526.97;;;-144.48;42.95
4123;BME280;2075;51.062;6.920;2023-05-29T12:03:00;92604.13;;;-144.48;43.08
4123;BME280;2075;51.062;6.920;2023-05-29T12:05:51;92624.44;;;-144.48;43.58
4123;BME280;2075;51.062;6.920;2023-05-29T12:08:39;92616.31;;;-144.48;42.50
4123;BME280;2075;51.062;6.920;2023-05-29T12:11:25;92790.97;;;-144.48;41.35
4123;BME280;2075;51.062;6.920;2023-05-29T12:14:11;92474.19;;;-144.48;41.21
4123;BME280;2075;51.062;6.920;2023-05-29T12:16:59;92484.34;;;-144.48;41.19
4123;BME280;2075;51.062;6.920;2023-05-29T12:19:45;92455.91;;;-144.48;40.46
4123;BME280;2075;51.062;6.920;2023-05-29T12:22:32;92535.09;;;-144.48;41.44
4123;BME280;2075;51.062;6.920;2023-05-29T12:25:20;92474.19;;;-144.48;42.10
4123;BME280;2075;51.062;6.920;2023-05-29T12:28:06;92502.59;;;-144.48;41.02
4123;BME280;2075;51.062;6.920;2023-05-29T12:30:58;92579.78;;;-144.48;41.42
4123;BME280;2075;51.062;6.920;2023-05-29T12:33:45;92557.44;;;-144.48;42.34
4123;BME280;2075;51.062;6.920;2023-05-29T12:36:31;92600.06;;;-144.48;41.98
4123;BME280;2075;51.062;6.920;2023-05-29T12:39:17;92502.59;;;-144.48;41.90
4123;BME280;2075;51.062;6.920;2023-05-29T12:42:03;92522.91;;;-144.48;41.33
4123;BME280;2075;51.062;6.920;2023-05-29T12:44:51;92585.88;;;-144.48;40.78
4123;BME280;2075;51.062;6.920;2023-05-29T12:47:37;92614.28;;;-144.48;41.57
4123;BME280;2075;51.062;6.920;2023-05-29T12:50:25;92841.72;;;-144.48;41.39
4123;BME280;2075;51.062;6.920;2023-05-29T12:53:13;92600.06;;;-144.48;41.29
4123;BME280;2075;51.062;6.920;2023-05-29T12:56:02;92709.75;;;-144.48;41.45
4123;BME280;2075;51.062;6.920;2023-05-29T12:58:48;92482.31;;;-144.48;41.48
4123;BME280;2075;51.062;6.920;2023-05-29T13:01:34;92474.19;;;-144.48;40.66
4123;BME280;2075;51.062;6.920;2023-05-29T13:04:21;92462.00;;;-144.48;40.80
4123;BME280;2075;51.062;6.920;2023-05-29T13:07:08;92541.19;;;-144.48;41.71
4123;BME280;2075;51.062;6.920;2023-05-29T13:09:54;92555.41;;;-144.48;40.87
4123;BME280;2075;51.062;6.920;2023-05-29T13:15:22;92455.91;;;-144.48;40.37
4123;BME280;2075;51.062;6.920;2023-05-29T13:18:07;92413.25;;;-144.48;39.43
4123;BME280;2075;51.062;6.920;2023-05-29T13:20:53;92482.31;;;-144.48;40.01
4123;BME280;2075;51.062;6.920;2023-05-29T13:23:41;92490.41;;;-144.48;40.74
4123;BME280;2075;51.062;6.920;2023-05-29T13:26:27;92472.16;;;-144.48;40.61
4123;BME280;2075;51.062;6.920;2023-05-29T13:29:16;92437.63;;;-144.48;40.73
4123;BME280;2075;51.062;6.920;2023-05-29T13:32:04;92535.09;;;-144.48;40.18
4123;BME280;2075;51.062;6.920;2023-05-29T13:34:53;92488.38;;;-144.48;40.75
4123;BME280;2075;51.062;6.920;2023-05-29T13:37:39;92437.63;;;-144.48;39.98
4123;BME280;2075;51.062;6.920;2023-05-29T13:40:26;92526.97;;;-144.48;40.50
4123;BME280;2075;51.062;6.920;2023-05-29T13:43:12;92506.66;;;-144.48;40.43
4123;BME280;2075;51.062;6.920;2023-05-29T13:45:58;92476.22;;;-144.48;39.71
4123;BME280;2075;51.062;6.920;2023-05-29T13:48:44;92464.03;;;-144.48;40.56
4123;BME280;2075;51.062;6.920;2023-05-29T13:51:30;92518.84;;;-144.48;39.47
4123;BME280;2075;51.062;6.920;2023-05-29T13:54:16;92535.09;;;-144.48;40.11
4123;BME280;2075;51.062;6.920;2023-05-29T13:57:04;92502.59;;;-144.48;39.56
4123;BME280;2075;51.062;6.920;2023-05-29T13:59:50;92514.78;;;-144.48;39.35
4123;BME280;2075;51.062;6.920;2023-05-29T14:02:36;92504.63;;;-144.48;39.26
4123;BME280;2075;51.062;6.920;2023-05-29T14:05:23;92502.59;;;-144.48;39.94
4123;BME280;2075;51.062;6.920;2023-05-29T14:08:10;92433.56;;;-144.48;39.66
4123;BME280;2075;51.062;6.920;2023-05-29T14:10:56;92484.34;;;-144.48;39.69
4123;BME280;2075;51.062;6.920;2023-05-29T14:13:43;92553.38;;;-144.48;40.48
4123;BME280;2075;51.062;6.920;2023-05-29T14:16:29;92116.81;;;-144.48;39.54
4123;BME280;2075;51.062;6.920;2023-05-29T14:19:16;92500.56;;;-144.48;39.47
4123;BME280;2075;51.062;6.920;2023-05-29T14:25:22;92600.06;;;-144.48;39.40
4123;BME280;2075;51.062;6.920;2023-05-29T14:28:10;92583.84;;;-144.48;40.21
4123;BME280;2075;51.062;6.920;2023-05-29T14:31:01;92612.25;;;-144.48;40.80
4123;BME280;2075;51.062;6.920;2023-05-29T14:33:48;92656.94;;;-144.48;41.63
4123;BME280;2075;51.062;6.920;2023-05-29T14:36:34;92492.44;;;-144.48;41.40
4123;BME280;2075;51.062;6.920;2023-05-29T14:39:22;92539.16;;;-144.48;41.53
4123;BME280;2075;51.062;6.920;2023-05-29T14:42:07;92620.38;;;-144.48;40.97
4123;BME280;2075;51.062;6.920;2023-05-29T14:44:52;92681.31;;;-144.48;41.13
4123;BME280;2075;51.062;6.920;2023-05-29T14:47:40;92614.28;;;-144.48;41.30
4123;BME280;2075;51.062;6.920;2023-05-29T14:50:27;92522.91;;;-144.48;40.08
4123;BME280;2075;51.062;6.920;2023-05-29T14:53:12;92559.47;;;-144.48;40.56
4123;BME280;2075;51.062;6.920;2023-05-29T14:55:58;92642.72;;;-144.48;40.29
4123;BME280;2075;51.062;6.920;2023-05-29T14:58:46;92663.03;;;-144.48;40.48
4123;BME280;2075;51.062;6.920;2023-05-29T15:01:34;92644.75;;;-144.48;41.03
4123;BME280;2075;51.062;6.920;2023-05-29T15:04:21;92535.09;;;-144.48;39.92
4123;BME280;2075;51.062;6.920;2023-05-29T15:07:06;92600.06;;;-144.48;40.24